Seattle, WA

6:41 AM PDT on October 20, 2014 (GMT -0700)
Queen Anne Southern Exposure | Change Station
CLOSE
Current Station
Personal Weather Station
Location: Seattle, WA
Elevation: 217 ft
Nearby Weather Stations

Elev 217 ft 47.63 °N, 122.35 °W | Updated 1 minute ago

Rain
Rain
57.9 °F
Feels Like 57.9 °F
N
2.0
Wind Variable Wind from SE

Today
High -- | Low -- °F
--% Chance of Precip.
Yesterday
High -- | Low -- °F
Precip. -- in
7:35 AM 6:11 PM
Waning Crescent, 11% visible
Pressure 29.70 in
Visibility 10.0 miles
Clouds Overcast 3900 ft
Dew Point 54 °F
Humidity 87%
Rainfall 0.15 in
Snow Depth Not available.
UV 0 out of 12
Pollen .40 out of 12
Air Quality Not available.
Flu Activity Sporadic
METAR KBFI 201253Z 16005KT 10SM OVC039 16/14 A2970 RMK AO2 SLP056 T01560139

More Conditions Fewer Conditions

Pressure 29.70 in
Visibility 10.0 miles
Clouds Overcast 3900 ft
Dew Point 54 °F
Humidity 87%
Rainfall 0.15 in
Snow Depth Not available.
UV 0 out of 12
Pollen .40 out of 12
Air Quality Not available.
Flu Activity Sporadic
METAR KBFI 201253Z 16005KT 10SM OVC039 16/14 A2970 RMK AO2 SLP056 T01560139

More Conditions Fewer Conditions

10-Day Weather Forecast

Almanac

Astronomy

Oct. 20, 2014 Rise Set
Actual Time 7:35 AM PDT 6:11 PM PDT
Civil Twilight 7:04 AM PDT 6:43 PM PDT
Nautical Twilight 6:28 AM PDT 7:18 PM PDT
Astronomical Twilight 5:52 AM PDT 7:54 PM PDT
Moon 4:16 AM PDT 4:48 PM PDT
Length of Visible Light 11h 38m
Length of Day
10h 36m
Waning Crescent, 11% of the Moon is Illuminated
Today
Waning Crescent
Oct 23
New
Oct 30
First Quarter
Nov 6
Full
Nov 14
Last Quarter

Today's Extremes

State Highs State Lows

Community

WunderPhotos

Upload Photos

1,763,382 photos uploaded!

Nearby

Air Quality

  Air Quality AQ Index Pollutant
Monday Good
PM2.5
Tuesday Good
PM2.5

Snow Depth

Station Depth Elevation
Alpine Meadows 0 in 3500 ft
Skookum Creek 0 in 3920 ft
Dungeness 0 in 4100 ft
Mount Gardner 0 in 3000 ft
Burnt Mountain 0 in 4200 ft

Earthquake Activity

City Distance Mag. Time & Date
No recent earthquake activity has been reported nearby.
Minimum magnitude displayed is 2.5.

Coastal Water Temperatures

Place Temperature
Port Townsend, WA 53.1 °F
Seattle, WA 55.0 °F
Friday Harbor, WA 51.1 °F
Tacoma, WA 55.0 °F

Nearby Weather Stations